sensor_id;sensor_type;location;lat;lon;timestamp;P1;durP1;ratioP1;P2;durP2;ratioP2
84745;SDS011;74975;51.922;6.480;2024-02-28T00:09:35;61.00;;;16.40;;
84745;SDS011;74975;51.922;6.480;2024-02-28T00:12:20;58.70;;;15.00;;
84745;SDS011;74975;51.922;6.480;2024-02-28T00:15:16;121.80;;;23.20;;
84745;SDS011;74975;51.922;6.480;2024-02-28T00:22:10;157.63;;;23.15;;
84745;SDS011;74975;51.922;6.480;2024-02-28T00:24:44;102.28;;;17.60;;
84745;SDS011;74975;51.922;6.480;2024-02-28T00:27:19;131.82;;;24.13;;
84745;SDS011;74975;51.922;6.480;2024-02-28T00:29:44;140.05;;;23.90;;
84745;SDS011;74975;51.922;6.480;2024-02-28T00:32:16;202.90;;;27.38;;
84745;SDS011;74975;51.922;6.480;2024-02-28T00:34:42;130.75;;;25.98;;
84745;SDS011;74975;51.922;6.480;2024-02-28T00:37:17;119.07;;;20.45;;
84745;SDS011;74975;51.922;6.480;2024-02-28T00:39:44;145.18;;;25.70;;
84745;SDS011;74975;51.922;6.480;2024-02-28T00:42:17;128.23;;;21.38;;
84745;SDS011;74975;51.922;6.480;2024-02-28T00:44:43;87.28;;;20.08;;
84745;SDS011;74975;51.922;6.480;2024-02-28T00:47:09;51.65;;;16.90;;
84745;SDS011;74975;51.922;6.480;2024-02-28T00:49:41;66.35;;;18.35;;
84745;SDS011;74975;51.922;6.480;2024-02-28T00:52:16;63.40;;;18.58;;
84745;SDS011;74975;51.922;6.480;2024-02-28T00:54:47;90.55;;;21.85;;
84745;SDS011;74975;51.922;6.480;2024-02-28T00:57:16;136.30;;;25.42;;
84745;SDS011;74975;51.922;6.480;2024-02-28T00:59:45;83.93;;;21.40;;
84745;SDS011;74975;51.922;6.480;2024-02-28T01:02:18;115.22;;;22.83;;
84745;SDS011;74975;51.922;6.480;2024-02-28T01:04:46;124.45;;;22.15;;
84745;SDS011;74975;51.922;6.480;2024-02-28T01:07:19;132.70;;;24.80;;
84745;SDS011;74975;51.922;6.480;2024-02-28T01:09:51;145.32;;;24.95;;
84745;SDS011;74975;51.922;6.480;2024-02-28T01:12:17;168.98;;;28.15;;
84745;SDS011;74975;51.922;6.480;2024-02-28T01:14:48;142.35;;;26.30;;
84745;SDS011;74975;51.922;6.480;2024-02-28T01:17:19;226.88;;;29.60;;
84745;SDS011;74975;51.922;6.480;2024-02-28T01:19:57;148.85;;;26.58;;
84745;SDS011;74975;51.922;6.480;2024-02-28T01:22:27;121.32;;;24.77;;
84745;SDS011;74975;51.922;6.480;2024-02-28T01:24:57;155.40;;;26.85;;
84745;SDS011;74975;51.922;6.480;2024-02-28T01:27:29;158.65;;;26.45;;
84745;SDS011;74975;51.922;6.480;2024-02-28T01:30:05;152.90;;;27.20;;
84745;SDS011;74975;51.922;6.480;2024-02-28T01:32:32;132.73;;;24.63;;
84745;SDS011;74975;51.922;6.480;2024-02-28T01:35:04;134.35;;;26.48;;
84745;SDS011;74975;51.922;6.480;2024-02-28T01:37:35;153.23;;;27.23;;
84745;SDS011;74975;51.922;6.480;2024-02-28T01:40:10;114.88;;;20.88;;
84745;SDS011;74975;51.922;6.480;2024-02-28T01:42:36;161.82;;;29.50;;
84745;SDS011;74975;51.922;6.480;2024-02-28T01:45:04;144.43;;;27.15;;
84745;SDS011;74975;51.922;6.480;2024-02-28T01:47:35;171.63;;;29.52;;
84745;SDS011;74975;51.922;6.480;2024-02-28T01:50:10;154.40;;;25.90;;
84745;SDS011;74975;51.922;6.480;2024-02-28T01:52:45;145.57;;;26.02;;
84745;SDS011;74975;51.922;6.480;2024-02-28T01:55:17;178.30;;;29.95;;
84745;SDS011;74975;51.922;6.480;2024-02-28T01:57:55;144.73;;;27.50;;
84745;SDS011;74975;51.922;6.480;2024-02-28T02:00:21;135.07;;;24.13;;
84745;SDS011;74975;51.922;6.480;2024-02-28T02:02:50;117.88;;;24.95;;
84745;SDS011;74975;51.922;6.480;2024-02-28T02:05:17;139.30;;;28.65;;
84745;SDS011;74975;51.922;6.480;2024-02-28T02:07:51;142.90;;;26.55;;
84745;SDS011;74975;51.922;6.480;2024-02-28T02:10:24;122.15;;;25.70;;
84745;SDS011;74975;51.922;6.480;2024-02-28T02:12:51;149.40;;;27.77;;
84745;SDS011;74975;51.922;6.480;2024-02-28T02:17:55;116.90;;;21.55;;
84745;SDS011;74975;51.922;6.480;2024-02-28T02:20:23;179.95;;;28.60;;
84745;SDS011;74975;51.922;6.480;2024-02-28T02:22:56;115.47;;;24.92;;
84745;SDS011;74975;51.922;6.480;2024-02-28T02:25:24;143.63;;;26.95;;
84745;SDS011;74975;51.922;6.480;2024-02-28T02:27:53;132.93;;;26.35;;
84745;SDS011;74975;51.922;6.480;2024-02-28T02:30:25;158.73;;;27.42;;
84745;SDS011;74975;51.922;6.480;2024-02-28T02:32:54;154.27;;;27.83;;
84745;SDS011;74975;51.922;6.480;2024-02-28T02:35:29;249.35;;;37.83;;
84745;SDS011;74975;51.922;6.480;2024-02-28T02:38:00;191.63;;;30.95;;
84745;SDS011;74975;51.922;6.480;2024-02-28T02:40:32;194.02;;;33.10;;
84745;SDS011;74975;51.922;6.480;2024-02-28T02:43:00;170.65;;;28.13;;
84745;SDS011;74975;51.922;6.480;2024-02-28T02:45:29;176.10;;;32.90;;
84745;SDS011;74975;51.922;6.480;2024-02-28T02:48:01;222.45;;;33.15;;
84745;SDS011;74975;51.922;6.480;2024-02-28T02:50:27;141.02;;;29.40;;
84745;SDS011;74975;51.922;6.480;2024-02-28T02:52:56;172.85;;;29.33;;
84745;SDS011;74975;51.922;6.480;2024-02-28T02:55:32;203.55;;;33.17;;
84745;SDS011;74975;51.922;6.480;2024-02-28T02:58:04;219.63;;;34.20;;
84745;SDS011;74975;51.922;6.480;2024-02-28T03:00:33;177.20;;;31.38;;
84745;SDS011;74975;51.922;6.480;2024-02-28T03:03:03;170.93;;;33.97;;
84745;SDS011;74975;51.922;6.480;2024-02-28T03:05:37;184.18;;;31.02;;
84745;SDS011;74975;51.922;6.480;2024-02-28T03:08:04;159.00;;;30.45;;
84745;SDS011;74975;51.922;6.480;2024-02-28T03:10:35;222.77;;;36.58;;
84745;SDS011;74975;51.922;6.480;2024-02-28T03:13:06;165.38;;;30.08;;
84745;SDS011;74975;51.922;6.480;2024-02-28T03:15:33;142.18;;;30.00;;
84745;SDS011;74975;51.922;6.480;2024-02-28T03:17:59;192.38;;;35.10;;
84745;SDS011;74975;51.922;6.480;2024-02-28T03:20:30;227.35;;;34.53;;
84745;SDS011;74975;51.922;6.480;2024-02-28T03:22:59;199.95;;;34.15;;
84745;SDS011;74975;51.922;6.480;2024-02-28T03:25:25;200.40;;;30.05;;
84745;SDS011;74975;51.922;6.480;2024-02-28T03:27:58;173.85;;;28.48;;
84745;SDS011;74975;51.922;6.480;2024-02-28T03:30:26;116.82;;;28.17;;
84745;SDS011;74975;51.922;6.480;2024-02-28T03:32:53;172.60;;;35.28;;
84745;SDS011;74975;51.922;6.480;2024-02-28T03:35:28;191.55;;;33.30;;
84745;SDS011;74975;51.922;6.480;2024-02-28T03:38:04;198.18;;;38.25;;
84745;SDS011;74975;51.922;6.480;2024-02-28T03:40:35;152.73;;;28.85;;
84745;SDS011;74975;51.922;6.480;2024-02-28T03:43:02;152.48;;;30.83;;
84745;SDS011;74975;51.922;6.480;2024-02-28T03:45:36;139.20;;;27.83;;
84745;SDS011;74975;51.922;6.480;2024-02-28T03:50:36;113.50;;;27.50;;
84745;SDS011;74975;51.922;6.480;2024-02-28T03:53:03;83.30;;;25.15;;
84745;SDS011;74975;51.922;6.480;2024-02-28T03:55:32;92.22;;;22.73;;
84745;SDS011;74975;51.922;6.480;2024-02-28T03:58:08;87.93;;;27.15;;
84745;SDS011;74975;51.922;6.480;2024-02-28T04:00:44;127.55;;;29.15;;
84745;SDS011;74975;51.922;6.480;2024-02-28T04:03:14;120.95;;;29.75;;
84745;SDS011;74975;51.922;6.480;2024-02-28T04:05:43;97.78;;;22.90;;
84745;SDS011;74975;51.922;6.480;2024-02-28T04:08:11;131.00;;;31.83;;
84745;SDS011;74975;51.922;6.480;2024-02-28T04:10:43;120.78;;;29.75;;
84745;SDS011;74975;51.922;6.480;2024-02-28T04:13:15;140.63;;;35.40;;
84745;SDS011;74975;51.922;6.480;2024-02-28T04:15:41;96.80;;;30.50;;
84745;SDS011;74975;51.922;6.480;2024-02-28T04:18:17;131.35;;;31.05;;
84745;SDS011;74975;51.922;6.480;2024-02-28T04:20:49;81.93;;;27.75;;
84745;SDS011;74975;51.922;6.480;2024-02-28T04:23:21;148.00;;;35.85;;
84745;SDS011;74975;51.922;6.480;2024-02-28T04:25:46;115.18;;;31.27;;
84745;SDS011;74975;51.922;6.480;2024-02-28T04:28:17;144.77;;;29.92;;
84745;SDS011;74975;51.922;6.480;2024-02-28T04:30:43;136.00;;;33.33;;
84745;SDS011;74975;51.922;6.480;2024-02-28T04:33:18;101.45;;;28.40;;
84745;SDS011;74975;51.922;6.480;2024-02-28T04:35:49;124.10;;;32.90;;
84745;SDS011;74975;51.922;6.480;2024-02-28T04:38:17;180.50;;;33.10;;
84745;SDS011;74975;51.922;6.480;2024-02-28T04:40:48;210.85;;;36.10;;
84745;SDS011;74975;51.922;6.480;2024-02-28T04:43:14;155.93;;;31.17;;
84745;SDS011;74975;51.922;6.480;2024-02-28T04:45:48;160.10;;;33.55;;
84745;SDS011;74975;51.922;6.480;2024-02-28T04:48:16;159.63;;;32.47;;
84745;SDS011;74975;51.922;6.480;2024-02-28T04:50:54;155.75;;;35.72;;
84745;SDS011;74975;51.922;6.480;2024-02-28T04:53:24;103.90;;;28.80;;
84745;SDS011;74975;51.922;6.480;2024-02-28T04:55:51;145.80;;;30.27;;
84745;SDS011;74975;51.922;6.480;2024-02-28T04:58:23;176.50;;;33.22;;
84745;SDS011;74975;51.922;6.480;2024-02-28T05:00:57;119.57;;;29.15;;
84745;SDS011;74975;51.922;6.480;2024-02-28T05:03:33;119.75;;;29.67;;
84745;SDS011;74975;51.922;6.480;2024-02-28T05:06:06;101.70;;;25.27;;
84745;SDS011;74975;51.922;6.480;2024-02-28T05:08:40;122.03;;;31.63;;
84745;SDS011;74975;51.922;6.480;2024-02-28T05:11:05;167.57;;;31.77;;
84745;SDS011;74975;51.922;6.480;2024-02-28T05:13:40;128.35;;;28.02;;
84745;SDS011;74975;51.922;6.480;2024-02-28T05:16:15;160.68;;;31.10;;
84745;SDS011;74975;51.922;6.480;2024-02-28T05:18:47;138.90;;;29.77;;
84745;SDS011;74975;51.922;6.480;2024-02-28T05:21:21;101.15;;;27.58;;
84745;SDS011;74975;51.922;6.480;2024-02-28T05:23:47;111.65;;;26.25;;
84745;SDS011;74975;51.922;6.480;2024-02-28T05:26:17;129.00;;;26.52;;
84745;SDS011;74975;51.922;6.480;2024-02-28T05:28:46;84.88;;;23.30;;
84745;SDS011;74975;51.922;6.480;2024-02-28T05:31:23;86.65;;;22.40;;
84745;SDS011;74975;51.922;6.480;2024-02-28T05:33:51;58.17;;;17.10;;
84745;SDS011;74975;51.922;6.480;2024-02-28T05:36:21;97.00;;;26.77;;
84745;SDS011;74975;51.922;6.480;2024-02-28T05:38:59;119.45;;;27.95;;
84745;SDS011;74975;51.922;6.480;2024-02-28T05:41:33;139.15;;;29.30;;
84745;SDS011;74975;51.922;6.480;2024-02-28T05:44:06;121.38;;;30.60;;
84745;SDS011;74975;51.922;6.480;2024-02-28T05:46:37;105.45;;;25.65;;
84745;SDS011;74975;51.922;6.480;2024-02-28T05:49:03;120.10;;;29.65;;
84745;SDS011;74975;51.922;6.480;2024-02-28T05:51:34;125.05;;;27.80;;
84745;SDS011;74975;51.922;6.480;2024-02-28T05:54:06;82.70;;;21.23;;
84745;SDS011;74975;51.922;6.480;2024-02-28T05:56:33;65.95;;;24.95;;
84745;SDS011;74975;51.922;6.480;2024-02-28T05:59:04;101.47;;;27.70;;
84745;SDS011;74975;51.922;6.480;2024-02-28T06:01:38;134.20;;;34.35;;
84745;SDS011;74975;51.922;6.480;2024-02-28T06:04:05;90.55;;;25.42;;
84745;SDS011;74975;51.922;6.480;2024-02-28T06:06:42;97.65;;;25.70;;
84745;SDS011;74975;51.922;6.480;2024-02-28T06:09:10;61.33;;;20.20;;
84745;SDS011;74975;51.922;6.480;2024-02-28T06:11:41;67.80;;;20.98;;
84745;SDS011;74975;51.922;6.480;2024-02-28T06:14:10;78.05;;;24.92;;
84745;SDS011;74975;51.922;6.480;2024-02-28T06:16:44;87.55;;;26.40;;
84745;SDS011;74975;51.922;6.480;2024-02-28T06:19:18;76.00;;;23.67;;
84745;SDS011;74975;51.922;6.480;2024-02-28T06:21:43;73.78;;;23.30;;
84745;SDS011;74975;51.922;6.480;2024-02-28T06:24:17;90.45;;;25.38;;
84745;SDS011;74975;51.922;6.480;2024-02-28T06:26:46;56.55;;;21.02;;
84745;SDS011;74975;51.922;6.480;2024-02-28T06:29:12;84.82;;;27.88;;
84745;SDS011;74975;51.922;6.480;2024-02-28T06:31:49;64.63;;;23.10;;
84745;SDS011;74975;51.922;6.480;2024-02-28T06:34:15;53.85;;;24.52;;
84745;SDS011;74975;51.922;6.480;2024-02-28T06:36:51;49.55;;;21.17;;
84745;SDS011;74975;51.922;6.480;2024-02-28T06:39:23;56.90;;;22.70;;
84745;SDS011;74975;51.922;6.480;2024-02-28T06:41:51;86.75;;;26.75;;
84745;SDS011;74975;51.922;6.480;2024-02-28T06:44:20;78.05;;;25.50;;
84745;SDS011;74975;51.922;6.480;2024-02-28T06:46:46;49.72;;;20.55;;
84745;SDS011;74975;51.922;6.480;2024-02-28T06:49:19;77.20;;;25.73;;
84745;SDS011;74975;51.922;6.480;2024-02-28T06:51:50;93.00;;;28.50;;
84745;SDS011;74975;51.922;6.480;2024-02-28T06:54:20;70.25;;;23.98;;
84745;SDS011;74975;51.922;6.480;2024-02-28T06:56:52;65.35;;;24.20;;
84745;SDS011;74975;51.922;6.480;2024-02-28T06:59:24;53.65;;;28.23;;
84745;SDS011;74975;51.922;6.480;2024-02-28T07:01:57;49.60;;;22.58;;
84745;SDS011;74975;51.922;6.480;2024-02-28T07:04:22;50.03;;;21.73;;
84745;SDS011;74975;51.922;6.480;2024-02-28T07:09:20;30.35;;;15.15;;
84745;SDS011;74975;51.922;6.480;2024-02-28T07:12:02;47.22;;;23.08;;
84745;SDS011;74975;51.922;6.480;2024-02-28T07:14:38;55.55;;;23.60;;
84745;SDS011;74975;51.922;6.480;2024-02-28T07:17:13;65.93;;;29.65;;
84745;SDS011;74975;51.922;6.480;2024-02-28T07:19:50;46.67;;;23.10;;
84745;SDS011;74975;51.922;6.480;2024-02-28T07:22:19;55.55;;;23.50;;
84745;SDS011;74975;51.922;6.480;2024-02-28T07:24:48;67.82;;;29.10;;
84745;SDS011;74975;51.922;6.480;2024-02-28T07:27:29;39.78;;;19.50;;
84745;SDS011;74975;51.922;6.480;2024-02-28T07:30:07;57.63;;;24.02;;
84745;SDS011;74975;51.922;6.480;2024-02-28T07:32:44;58.33;;;25.55;;
84745;SDS011;74975;51.922;6.480;2024-02-28T07:35:22;36.55;;;17.45;;
84745;SDS011;74975;51.922;6.480;2024-02-28T07:37:57;45.42;;;22.65;;
84745;SDS011;74975;51.922;6.480;2024-02-28T07:40:29;51.60;;;26.17;;
84745;SDS011;74975;51.922;6.480;2024-02-28T07:43:01;38.40;;;17.40;;
84745;SDS011;74975;51.922;6.480;2024-02-28T07:45:46;25.98;;;13.90;;
84745;SDS011;74975;51.922;6.480;2024-02-28T07:48:24;35.63;;;17.08;;
84745;SDS011;74975;51.922;6.480;2024-02-28T07:50:56;31.27;;;15.98;;
84745;SDS011;74975;51.922;6.480;2024-02-28T07:53:28;50.03;;;24.38;;
84745;SDS011;74975;51.922;6.480;2024-02-28T07:56:07;38.55;;;20.08;;
84745;SDS011;74975;51.922;6.480;2024-02-28T07:58:53;43.45;;;20.77;;
84745;SDS011;74975;51.922;6.480;2024-02-28T08:01:26;42.22;;;23.60;;
84745;SDS011;74975;51.922;6.480;2024-02-28T08:03:59;40.95;;;20.25;;
84745;SDS011;74975;51.922;6.480;2024-02-28T08:09:09;46.38;;;22.35;;
84745;SDS011;74975;51.922;6.480;2024-02-28T08:11:40;42.80;;;20.63;;
84745;SDS011;74975;51.922;6.480;2024-02-28T08:14:06;49.63;;;23.67;;
84745;SDS011;74975;51.922;6.480;2024-02-28T08:19:22;34.97;;;19.35;;
84745;SDS011;74975;51.922;6.480;2024-02-28T08:22:01;50.05;;;23.13;;
84745;SDS011;74975;51.922;6.480;2024-02-28T08:24:36;48.38;;;22.92;;
84745;SDS011;74975;51.922;6.480;2024-02-28T08:27:14;49.55;;;24.63;;
84745;SDS011;74975;51.922;6.480;2024-02-28T08:29:49;42.90;;;20.88;;
84745;SDS011;74975;51.922;6.480;2024-02-28T08:32:27;34.88;;;17.98;;
84745;SDS011;74975;51.922;6.480;2024-02-28T08:35:01;50.63;;;27.98;;
84745;SDS011;74975;51.922;6.480;2024-02-28T08:37:33;42.83;;;22.33;;
84745;SDS011;74975;51.922;6.480;2024-02-28T08:40:04;42.22;;;19.15;;
84745;SDS011;74975;51.922;6.480;2024-02-28T08:42:36;40.25;;;20.90;;
84745;SDS011;74975;51.922;6.480;2024-02-28T08:45:12;50.28;;;24.58;;
84745;SDS011;74975;51.922;6.480;2024-02-28T08:47:48;31.77;;;17.50;;
84745;SDS011;74975;51.922;6.480;2024-02-28T08:50:22;53.72;;;23.05;;
84745;SDS011;74975;51.922;6.480;2024-02-28T08:52:58;52.13;;;22.42;;
84745;SDS011;74975;51.922;6.480;2024-02-28T08:55:30;48.53;;;24.13;;
84745;SDS011;74975;51.922;6.480;2024-02-28T08:58:02;41.25;;;19.75;;
84745;SDS011;74975;51.922;6.480;2024-02-28T09:00:33;35.58;;;17.75;;
84745;SDS011;74975;51.922;6.480;2024-02-28T09:03:07;39.15;;;19.33;;
84745;SDS011;74975;51.922;6.480;2024-02-28T09:05:42;40.92;;;20.40;;
84745;SDS011;74975;51.922;6.480;2024-02-28T09:08:34;37.22;;;19.27;;
84745;SDS011;74975;51.922;6.480;2024-02-28T09:11:05;37.17;;;17.63;;
84745;SDS011;74975;51.922;6.480;2024-02-28T09:13:44;48.85;;;22.48;;
84745;SDS011;74975;51.922;6.480;2024-02-28T09:16:18;47.25;;;22.33;;
84745;SDS011;74975;51.922;6.480;2024-02-28T09:19:05;47.70;;;22.02;;
84745;SDS011;74975;51.922;6.480;2024-02-28T09:21:48;35.63;;;17.58;;
84745;SDS011;74975;51.922;6.480;2024-02-28T09:24:24;48.08;;;23.30;;
84745;SDS011;74975;51.922;6.480;2024-02-28T09:27:06;54.20;;;23.05;;
84745;SDS011;74975;51.922;6.480;2024-02-28T09:29:41;40.75;;;21.33;;
84745;SDS011;74975;51.922;6.480;2024-02-28T09:32:18;38.33;;;16.88;;
84745;SDS011;74975;51.922;6.480;2024-02-28T09:34:56;41.03;;;17.58;;
84745;SDS011;74975;51.922;6.480;2024-02-28T09:37:28;39.67;;;21.88;;
84745;SDS011;74975;51.922;6.480;2024-02-28T09:40:00;33.72;;;14.70;;
84745;SDS011;74975;51.922;6.480;2024-02-28T09:42:33;34.05;;;16.17;;
84745;SDS011;74975;51.922;6.480;2024-02-28T09:45:05;33.78;;;15.65;;
84745;SDS011;74975;51.922;6.480;2024-02-28T09:47:42;31.15;;;15.50;;
84745;SDS011;74975;51.922;6.480;2024-02-28T09:50:21;38.15;;;19.90;;
84745;SDS011;74975;51.922;6.480;2024-02-28T09:52:53;39.28;;;16.13;;
84745;SDS011;74975;51.922;6.480;2024-02-28T09:55:35;43.08;;;21.08;;
84745;SDS011;74975;51.922;6.480;2024-02-28T09:58:06;39.67;;;19.00;;
84745;SDS011;74975;51.922;6.480;2024-02-28T10:00:40;43.20;;;20.13;;
84745;SDS011;74975;51.922;6.480;2024-02-28T10:03:17;42.10;;;20.35;;
84745;SDS011;74975;51.922;6.480;2024-02-28T10:05:57;20.65;;;11.07;;
84745;SDS011;74975;51.922;6.480;2024-02-28T10:08:26;36.30;;;15.82;;
84745;SDS011;74975;51.922;6.480;2024-02-28T10:11:00;27.85;;;16.92;;
84745;SDS011;74975;51.922;6.480;2024-02-28T10:13:32;22.98;;;14.02;;
84745;SDS011;74975;51.922;6.480;2024-02-28T10:16:07;31.60;;;16.48;;
84745;SDS011;74975;51.922;6.480;2024-02-28T10:18:39;39.97;;;18.92;;
84745;SDS011;74975;51.922;6.480;2024-02-28T10:21:10;25.50;;;16.65;;
84745;SDS011;74975;51.922;6.480;2024-02-28T10:23:45;34.92;;;15.98;;
84745;SDS011;74975;51.922;6.480;2024-02-28T10:26:22;39.45;;;19.25;;
84745;SDS011;74975;51.922;6.480;2024-02-28T10:29:19;38.85;;;21.30;;
84745;SDS011;74975;51.922;6.480;2024-02-28T10:32:15;38.25;;;18.40;;
84745;SDS011;74975;51.922;6.480;2024-02-28T10:34:50;42.35;;;20.23;;
84745;SDS011;74975;51.922;6.480;2024-02-28T10:37:29;38.30;;;20.10;;
84745;SDS011;74975;51.922;6.480;2024-02-28T10:40:03;49.42;;;21.95;;
84745;SDS011;74975;51.922;6.480;2024-02-28T10:42:36;37.35;;;17.90;;
84745;SDS011;74975;51.922;6.480;2024-02-28T10:45:14;39.58;;;17.90;;
84745;SDS011;74975;51.922;6.480;2024-02-28T10:47:51;40.30;;;19.25;;
84745;SDS011;74975;51.922;6.480;2024-02-28T10:50:27;44.78;;;18.60;;
84745;SDS011;74975;51.922;6.480;2024-02-28T10:53:09;38.28;;;19.05;;
84745;SDS011;74975;51.922;6.480;2024-02-28T10:55:55;46.60;;;19.05;;
84745;SDS011;74975;51.922;6.480;2024-02-28T10:58:33;41.28;;;21.35;;
84745;SDS011;74975;51.922;6.480;2024-02-28T11:01:21;53.80;;;23.80;;
84745;SDS011;74975;51.922;6.480;2024-02-28T11:03:48;48.83;;;24.08;;
84745;SDS011;74975;51.922;6.480;2024-02-28T11:06:25;31.05;;;14.98;;
84745;SDS011;74975;51.922;6.480;2024-02-28T11:08:54;34.75;;;18.27;;
84745;SDS011;74975;51.922;6.480;2024-02-28T11:11:34;41.55;;;17.17;;
84745;SDS011;74975;51.922;6.480;2024-02-28T11:14:14;36.53;;;16.75;;
84745;SDS011;74975;51.922;6.480;2024-02-28T11:16:46;34.72;;;16.38;;
84745;SDS011;74975;51.922;6.480;2024-02-28T11:19:45;44.78;;;20.58;;
84745;SDS011;74975;51.922;6.480;2024-02-28T11:22:18;35.90;;;19.00;;
84745;SDS011;74975;51.922;6.480;2024-02-28T11:25:16;55.47;;;24.05;;
84745;SDS011;74975;51.922;6.480;2024-02-28T11:27:51;39.00;;;18.23;;
84745;SDS011;74975;51.922;6.480;2024-02-28T11:30:27;33.50;;;17.23;;
84745;SDS011;74975;51.922;6.480;2024-02-28T11:33:03;39.10;;;18.52;;
84745;SDS011;74975;51.922;6.480;2024-02-28T11:35:39;32.88;;;16.35;;
84745;SDS011;74975;51.922;6.480;2024-02-28T11:40:54;33.70;;;13.90;;
84745;SDS011;74975;51.922;6.480;2024-02-28T11:43:28;39.95;;;17.77;;
84745;SDS011;74975;51.922;6.480;2024-02-28T11:46:11;44.20;;;18.27;;
84745;SDS011;74975;51.922;6.480;2024-02-28T11:48:43;45.25;;;21.30;;
84745;SDS011;74975;51.922;6.480;2024-02-28T11:51:15;32.70;;;15.63;;
84745;SDS011;74975;51.922;6.480;2024-02-28T11:53:48;34.65;;;16.02;;
84745;SDS011;74975;51.922;6.480;2024-02-28T11:56:17;35.80;;;15.73;;
84745;SDS011;74975;51.922;6.480;2024-02-28T11:58:57;24.45;;;13.20;;
84745;SDS011;74975;51.922;6.480;2024-02-28T12:01:43;31.65;;;14.63;;
84745;SDS011;74975;51.922;6.480;2024-02-28T12:06:49;44.80;;;17.58;;
84745;SDS011;74975;51.922;6.480;2024-02-28T12:09:22;35.95;;;15.57;;
84745;SDS011;74975;51.922;6.480;2024-02-28T12:12:21;34.47;;;17.05;;
84745;SDS011;74975;51.922;6.480;2024-02-28T12:14:52;37.38;;;18.52;;
84745;SDS011;74975;51.922;6.480;2024-02-28T12:17:18;39.50;;;18.63;;
84745;SDS011;74975;51.922;6.480;2024-02-28T12:19:50;52.78;;;23.88;;
84745;SDS011;74975;51.922;6.480;2024-02-28T12:22:22;36.65;;;18.13;;
84745;SDS011;74975;51.922;6.480;2024-02-28T12:24:50;39.78;;;18.25;;
84745;SDS011;74975;51.922;6.480;2024-02-28T12:27:22;37.25;;;18.10;;
84745;SDS011;74975;51.922;6.480;2024-02-28T12:29:49;38.25;;;17.85;;
84745;SDS011;74975;51.922;6.480;2024-02-28T12:32:17;43.55;;;20.13;;
84745;SDS011;74975;51.922;6.480;2024-02-28T12:34:43;41.63;;;18.80;;
84745;SDS011;74975;51.922;6.480;2024-02-28T12:37:13;40.20;;;16.67;;
84745;SDS011;74975;51.922;6.480;2024-02-28T12:39:41;46.53;;;19.13;;
84745;SDS011;74975;51.922;6.480;2024-02-28T12:42:12;38.47;;;16.17;;
84745;SDS011;74975;51.922;6.480;2024-02-28T12:44:38;40.88;;;18.98;;
84745;SDS011;74975;51.922;6.480;2024-02-28T12:47:05;44.83;;;20.38;;
84745;SDS011;74975;51.922;6.480;2024-02-28T12:49:36;29.10;;;13.65;;
84745;SDS011;74975;51.922;6.480;2024-02-28T12:52:04;33.33;;;16.08;;
84745;SDS011;74975;51.922;6.480;2024-02-28T12:54:33;34.40;;;17.30;;
84745;SDS011;74975;51.922;6.480;2024-02-28T12:56:59;33.25;;;13.13;;
84745;SDS011;74975;51.922;6.480;2024-02-28T12:59:32;40.90;;;17.77;;
84745;SDS011;74975;51.922;6.480;2024-02-28T13:02:02;30.10;;;12.90;;
84745;SDS011;74975;51.922;6.480;2024-02-28T13:04:31;33.88;;;14.82;;
84745;SDS011;74975;51.922;6.480;2024-02-28T13:07:04;44.72;;;18.63;;
84745;SDS011;74975;51.922;6.480;2024-02-28T13:09:30;46.65;;;20.83;;
84745;SDS011;74975;51.922;6.480;2024-02-28T13:12:03;39.00;;;14.52;;
84745;SDS011;74975;51.922;6.480;2024-02-28T13:14:31;39.78;;;16.10;;
84745;SDS011;74975;51.922;6.480;2024-02-28T13:16:57;33.38;;;14.32;;
84745;SDS011;74975;51.922;6.480;2024-02-28T13:19:30;42.53;;;19.95;;
84745;SDS011;74975;51.922;6.480;2024-02-28T13:22:02;46.15;;;19.42;;
84745;SDS011;74975;51.922;6.480;2024-02-28T13:24:41;43.70;;;17.67;;
84745;SDS011;74975;51.922;6.480;2024-02-28T13:27:10;31.77;;;15.30;;
84745;SDS011;74975;51.922;6.480;2024-02-28T13:29:35;40.58;;;19.52;;
84745;SDS011;74975;51.922;6.480;2024-02-28T13:32:02;42.63;;;18.67;;
84745;SDS011;74975;51.922;6.480;2024-02-28T13:34:32;40.30;;;17.98;;
84745;SDS011;74975;51.922;6.480;2024-02-28T13:37:03;47.75;;;18.73;;
84745;SDS011;74975;51.922;6.480;2024-02-28T13:39:31;47.35;;;19.25;;
84745;SDS011;74975;51.922;6.480;2024-02-28T13:42:00;49.50;;;25.33;;
84745;SDS011;74975;51.922;6.480;2024-02-28T13:44:32;40.33;;;17.67;;
84745;SDS011;74975;51.922;6.480;2024-02-28T13:47:10;40.15;;;17.50;;
84745;SDS011;74975;51.922;6.480;2024-02-28T13:49:39;34.15;;;13.00;;
84745;SDS011;74975;51.922;6.480;2024-02-28T13:52:10;32.92;;;16.00;;
84745;SDS011;74975;51.922;6.480;2024-02-28T13:54:42;21.10;;;11.20;;
84745;SDS011;74975;51.922;6.480;2024-02-28T13:57:12;39.05;;;13.82;;
84745;SDS011;74975;51.922;6.480;2024-02-28T13:59:42;40.58;;;18.15;;
84745;SDS011;74975;51.922;6.480;2024-02-28T14:02:18;42.70;;;18.63;;
84745;SDS011;74975;51.922;6.480;2024-02-28T14:04:53;29.20;;;15.63;;
84745;SDS011;74975;51.922;6.480;2024-02-28T14:07:19;33.17;;;16.33;;
84745;SDS011;74975;51.922;6.480;2024-02-28T14:09:56;29.10;;;13.15;;
84745;SDS011;74975;51.922;6.480;2024-02-28T14:12:29;39.58;;;17.98;;
84745;SDS011;74975;51.922;6.480;2024-02-28T14:15:03;28.60;;;13.68;;
84745;SDS011;74975;51.922;6.480;2024-02-28T14:17:57;44.28;;;17.17;;
84745;SDS011;74975;51.922;6.480;2024-02-28T14:21:24;27.73;;;11.95;;
84745;SDS011;74975;51.922;6.480;2024-02-28T14:24:34;23.63;;;12.65;;
84745;SDS011;74975;51.922;6.480;2024-02-28T14:27:03;38.13;;;16.55;;
84745;SDS011;74975;51.922;6.480;2024-02-28T14:29:30;41.45;;;17.40;;
84745;SDS011;74975;51.922;6.480;2024-02-28T14:31:57;32.08;;;15.02;;
84745;SDS011;74975;51.922;6.480;2024-02-28T14:34:29;35.90;;;16.20;;
84745;SDS011;74975;51.922;6.480;2024-02-28T14:36:56;39.33;;;17.58;;
84745;SDS011;74975;51.922;6.480;2024-02-28T14:39:25;35.97;;;16.50;;
84745;SDS011;74975;51.922;6.480;2024-02-28T14:41:50;43.80;;;17.90;;
84745;SDS011;74975;51.922;6.480;2024-02-28T14:44:16;41.17;;;18.70;;
84745;SDS011;74975;51.922;6.480;2024-02-28T14:46:44;25.52;;;12.98;;
84745;SDS011;74975;51.922;6.480;2024-02-28T14:49:16;39.05;;;19.42;;
84745;SDS011;74975;51.922;6.480;2024-02-28T14:51:45;40.30;;;17.50;;
84745;SDS011;74975;51.922;6.480;2024-02-28T14:54:19;33.13;;;16.17;;
84745;SDS011;74975;51.922;6.480;2024-02-28T14:59:25;34.28;;;14.57;;
84745;SDS011;74975;51.922;6.480;2024-02-28T15:01:50;34.97;;;17.70;;
84745;SDS011;74975;51.922;6.480;2024-02-28T15:04:27;35.58;;;14.90;;
84745;SDS011;74975;51.922;6.480;2024-02-28T15:06:58;34.13;;;15.70;;
84745;SDS011;74975;51.922;6.480;2024-02-28T15:09:36;34.42;;;15.43;;
84745;SDS011;74975;51.922;6.480;2024-02-28T15:12:02;36.22;;;17.38;;
84745;SDS011;74975;51.922;6.480;2024-02-28T15:14:28;34.28;;;16.27;;
84745;SDS011;74975;51.922;6.480;2024-02-28T15:19:40;39.35;;;18.27;;
84745;SDS011;74975;51.922;6.480;2024-02-28T15:22:05;40.80;;;17.17;;
84745;SDS011;74975;51.922;6.480;2024-02-28T15:24:33;36.60;;;17.48;;
84745;SDS011;74975;51.922;6.480;2024-02-28T15:26:59;37.05;;;16.40;;